Time;durP1;ratioP1;P1;durP2;ratioP2;P2;SDS_P1;SDS_P2;PMS_P1;PMS_P2;Temp;Humidity;BMP_temperature;BMP_pressure;BME280_temperature;BME280_humidity;BME280_pressure;Samples;Min_cycle;Max_cycle;Signal;HPM_P1;HPM_P2
2023/09/09 00:00:50;;;;;;;20.85;18.50;;;;;;;;;;5040029;28;20080;-83
2023/09/09 00:03:16;;;;;;;22.10;19.48;;;;;;;;;;5040582;28;20049;-83
2023/09/09 00:05:42;;;;;;;21.75;19.27;;;;;;;;;;5041493;28;20042;-82
2023/09/09 00:08:08;;;;;;;19.92;17.83;;;;;;;;;;5042436;28;20120;-83
2023/09/09 00:10:38;;;;;;;21.60;17.30;;;;;;;;;;5041512;28;20419;-82
2023/09/09 00:13:09;;;;;;;17.88;15.07;;;;;;;;;;5025266;28;20044;-82
2023/09/09 00:15:35;;;;;;;16.30;14.63;;;;;;;;;;5040885;28;20056;-82
2023/09/09 00:18:02;;;;;;;17.50;14.43;;;;;;;;;;5044149;28;20080;-83
2023/09/09 00:20:33;;;;;;;19.98;14.05;;;;;;;;;;5041585;28;20107;-83
2023/09/09 00:23:00;;;;;;;19.92;14.48;;;;;;;;;;5014487;28;20044;-82
2023/09/09 00:25:26;;;;;;;18.95;15.50;;;;;;;;;;5036757;28;20053;-81
2023/09/09 00:27:53;;;;;;;17.27;14.63;;;;;;;;;;5041359;28;20038;-82
2023/09/09 00:30:20;;;;;;;18.85;14.80;;;;;;;;;;5040057;28;20045;-82
2023/09/09 00:32:46;;;;;;;18.48;15.02;;;;;;;;;;5036279;28;20041;-82
2023/09/09 00:35:12;;;;;;;16.30;14.57;;;;;;;;;;5040789;28;20049;-82
2023/09/09 00:37:41;;;;;;;18.58;16.45;;;;;;;;;;5042472;28;20045;-82
2023/09/09 00:40:07;;;;;;;18.98;16.90;;;;;;;;;;5039534;28;20077;-82
2023/09/09 00:42:33;;;;;;;20.27;17.58;;;;;;;;;;5042447;28;20065;-83
2023/09/09 00:44:59;;;;;;;24.83;22.33;;;;;;;;;;5042239;28;20042;-82
2023/09/09 00:47:25;;;;;;;22.42;20.15;;;;;;;;;;5042754;28;20045;-83
2023/09/09 00:49:52;;;;;;;20.10;17.98;;;;;;;;;;5043130;28;20048;-82
2023/09/09 00:52:18;;;;;;;19.00;16.98;;;;;;;;;;5040808;28;20049;-82
2023/09/09 00:54:44;;;;;;;18.05;16.20;;;;;;;;;;5022773;28;20038;-83
2023/09/09 00:57:10;;;;;;;14.95;13.45;;;;;;;;;;5041911;28;20057;-83
2023/09/09 00:59:36;;;;;;;15.45;13.95;;;;;;;;;;5039304;28;20446;-83
2023/09/09 01:02:02;;;;;;;14.50;13.00;;;;;;;;;;5039838;28;20457;-83
2023/09/09 01:04:29;;;;;;;16.15;14.20;;;;;;;;;;5041316;28;20055;-82
2023/09/09 01:06:55;;;;;;;16.92;13.95;;;;;;;;;;5042008;28;20037;-83
2023/09/09 01:09:21;;;;;;;16.60;14.30;;;;;;;;;;5024349;28;20045;-83
2023/09/09 01:11:48;;;;;;;17.65;15.75;;;;;;;;;;5041467;28;20053;-83
2023/09/09 01:14:16;;;;;;;17.85;15.10;;;;;;;;;;5022994;28;20095;-82
2023/09/09 01:16:42;;;;;;;14.82;12.27;;;;;;;;;;5022775;28;20057;-82
2023/09/09 01:19:09;;;;;;;14.50;13.10;;;;;;;;;;5041271;28;20046;-82
2023/09/09 01:21:36;;;;;;;13.63;12.27;;;;;;;;;;5040437;28;20053;-83
2023/09/09 01:24:02;;;;;;;14.75;13.27;;;;;;;;;;5040636;28;20053;-83
2023/09/09 01:26:29;;;;;;;16.60;13.73;;;;;;;;;;5039504;28;20041;-83
2023/09/09 01:28:55;;;;;;;16.17;14.40;;;;;;;;;;5038264;28;20045;-82
2023/09/09 01:31:21;;;;;;;16.67;14.98;;;;;;;;;;5040192;28;20048;-83
2023/09/09 01:33:47;;;;;;;18.25;16.45;;;;;;;;;;5039044;28;20042;-82
2023/09/09 01:36:13;;;;;;;16.48;14.90;;;;;;;;;;5040594;28;20045;-83
2023/09/09 01:38:39;;;;;;;20.45;15.75;;;;;;;;;;5032026;28;20053;-83
2023/09/09 01:41:05;;;;;;;18.75;16.85;;;;;;;;;;5039751;28;20069;-83
2023/09/09 01:43:31;;;;;;;18.20;16.00;;;;;;;;;;5039898;28;20077;-83
2023/09/09 01:45:57;;;;;;;19.23;16.50;;;;;;;;;;5040584;28;20045;-84
2023/09/09 01:48:25;;;;;;;20.55;18.55;;;;;;;;;;5032885;28;20049;-84
2023/09/09 01:50:51;;;;;;;21.63;19.52;;;;;;;;;;5039475;28;20053;-83
2023/09/09 01:53:17;;;;;;;21.45;19.45;;;;;;;;;;5038470;28;20053;-83
2023/09/09 01:55:44;;;;;;;21.35;19.25;;;;;;;;;;5038126;28;20059;-85
2023/09/09 01:58:10;;;;;;;22.30;20.00;;;;;;;;;;5031150;28;20044;-84
2023/09/09 02:00:36;;;;;;;22.90;20.52;;;;;;;;;;5017837;28;20088;-84
2023/09/09 02:03:02;;;;;;;24.67;22.13;;;;;;;;;;5036541;28;20047;-83
2023/09/09 02:05:28;;;;;;;24.27;21.88;;;;;;;;;;5037968;28;20566;-84
2023/09/09 02:07:54;;;;;;;23.23;20.92;;;;;;;;;;5037341;28;20064;-84
2023/09/09 02:10:20;;;;;;;21.85;19.65;;;;;;;;;;5038971;28;20045;-83
2023/09/09 02:12:46;;;;;;;20.30;18.17;;;;;;;;;;5036730;28;20052;-84
2023/09/09 02:15:13;;;;;;;19.45;17.58;;;;;;;;;;5039135;28;20056;-84
2023/09/09 02:17:39;;;;;;;20.35;18.27;;;;;;;;;;5039235;28;20045;-83
2023/09/09 02:20:09;;;;;;;19.73;17.63;;;;;;;;;;5039185;28;20045;-83
2023/09/09 02:22:35;;;;;;;18.70;16.83;;;;;;;;;;5039099;28;21360;-83
2023/09/09 02:25:03;;;;;;;14.85;13.27;;;;;;;;;;5041024;28;20041;-83
2023/09/09 02:27:29;;;;;;;19.85;17.55;;;;;;;;;;5039312;28;20041;-84
2023/09/09 02:29:55;;;;;;;20.90;18.67;;;;;;;;;;5038424;28;20112;-82
2023/09/09 02:32:22;;;;;;;16.85;15.25;;;;;;;;;;5040960;28;20041;-83
2023/09/09 02:34:48;;;;;;;17.15;15.40;;;;;;;;;;5040001;28;20061;-83
2023/09/09 02:37:18;;;;;;;16.73;15.02;;;;;;;;;;5036366;28;20050;-83
2023/09/09 02:39:48;;;;;;;20.02;18.13;;;;;;;;;;5038015;28;20038;-83
2023/09/09 02:42:15;;;;;;;21.05;19.00;;;;;;;;;;5039381;28;20048;-83
2023/09/09 02:44:42;;;;;;;20.10;18.10;;;;;;;;;;5040693;28;20099;-83
2023/09/09 02:47:09;;;;;;;19.73;17.83;;;;;;;;;;5019947;28;20038;-83
2023/09/09 02:49:43;;;;;;;19.75;17.65;;;;;;;;;;5037897;28;20132;-83
2023/09/09 02:52:09;;;;;;;21.45;19.35;;;;;;;;;;5005665;28;20533;-83
2023/09/09 02:54:36;;;;;;;21.50;19.30;;;;;;;;;;5038595;28;20045;-83
2023/09/09 02:57:03;;;;;;;22.40;20.25;;;;;;;;;;5043761;28;20041;-82
2023/09/09 02:59:32;;;;;;;23.50;21.20;;;;;;;;;;5039032;28;20124;-83
2023/09/09 03:02:02;;;;;;;22.58;20.20;;;;;;;;;;5038895;28;20045;-84
2023/09/09 03:04:28;;;;;;;23.45;20.95;;;;;;;;;;5039558;28;20049;-83
2023/09/09 03:06:54;;;;;;;23.55;21.35;;;;;;;;;;5029353;28;20088;-83
2023/09/09 03:09:24;;;;;;;23.58;21.48;;;;;;;;;;5025417;28;20046;-83
2023/09/09 03:11:52;;;;;;;23.08;20.88;;;;;;;;;;5043586;28;20495;-83
2023/09/09 03:14:19;;;;;;;25.15;22.70;;;;;;;;;;5043499;28;20045;-83
2023/09/09 03:16:45;;;;;;;19.73;17.92;;;;;;;;;;5044107;28;20478;-83
2023/09/09 03:19:11;;;;;;;15.77;14.07;;;;;;;;;;5039629;28;20052;-83
2023/09/09 03:21:41;;;;;;;17.05;15.48;;;;;;;;;;5025956;28;20045;-83
2023/09/09 03:24:07;;;;;;;20.45;18.33;;;;;;;;;;5041469;28;20045;-83
2023/09/09 03:26:33;;;;;;;21.83;19.63;;;;;;;;;;5042228;28;20103;-83
2023/09/09 03:28:59;;;;;;;23.40;21.27;;;;;;;;;;5041825;28;20076;-83
2023/09/09 03:31:26;;;;;;;24.65;22.15;;;;;;;;;;5044344;28;20450;-83
2023/09/09 03:33:52;;;;;;;25.35;22.67;;;;;;;;;;5040923;28;20076;-82
2023/09/09 03:36:18;;;;;;;22.77;20.42;;;;;;;;;;5043774;28;20518;-82
2023/09/09 03:38:44;;;;;;;23.80;21.40;;;;;;;;;;5042550;28;20056;-83
2023/09/09 03:41:10;;;;;;;23.17;20.80;;;;;;;;;;5041084;28;20048;-83
2023/09/09 03:43:40;;;;;;;26.02;23.23;;;;;;;;;;5043429;28;20060;-82
2023/09/09 03:46:06;;;;;;;28.90;26.15;;;;;;;;;;5051707;28;20056;-83
2023/09/09 03:48:32;;;;;;;29.58;26.65;;;;;;;;;;5047093;28;20041;-83
2023/09/09 03:50:59;;;;;;;32.00;28.77;;;;;;;;;;5041523;28;20395;-82
2023/09/09 03:53:25;;;;;;;34.30;30.80;;;;;;;;;;5039472;28;20412;-83
2023/09/09 03:55:51;;;;;;;35.65;32.13;;;;;;;;;;5039862;28;20087;-83
2023/09/09 03:58:17;;;;;;;35.88;32.17;;;;;;;;;;5020159;28;20056;-83
2023/09/09 04:00:46;;;;;;;33.20;29.63;;;;;;;;;;5038433;28;20431;-83
2023/09/09 04:03:12;;;;;;;31.92;28.67;;;;;;;;;;5040519;28;20045;-83
2023/09/09 04:05:38;;;;;;;33.03;29.83;;;;;;;;;;5041337;28;20059;-83
2023/09/09 04:08:08;;;;;;;32.90;29.70;;;;;;;;;;5040430;28;20045;-83
2023/09/09 04:10:34;;;;;;;38.92;34.92;;;;;;;;;;5041736;28;20059;-83
2023/09/09 04:13:00;;;;;;;35.03;31.35;;;;;;;;;;5039901;28;20525;-83
2023/09/09 04:15:27;;;;;;;39.33;35.47;;;;;;;;;;5041763;28;20443;-83
2023/09/09 04:17:53;;;;;;;38.25;34.30;;;;;;;;;;5045776;28;20048;-83
2023/09/09 04:20:19;;;;;;;38.15;34.33;;;;;;;;;;5041770;28;20049;-83
2023/09/09 04:22:45;;;;;;;37.35;33.45;;;;;;;;;;5040407;28;20041;-83
2023/09/09 04:25:11;;;;;;;37.95;34.00;;;;;;;;;;5042090;28;20042;-83
2023/09/09 04:27:37;;;;;;;35.97;32.17;;;;;;;;;;5039774;28;20064;-83
2023/09/09 04:30:03;;;;;;;35.83;32.22;;;;;;;;;;5040859;28;20131;-83
2023/09/09 04:32:31;;;;;;;34.60;30.80;;;;;;;;;;5039799;28;20041;-83
2023/09/09 04:35:01;;;;;;;34.47;30.85;;;;;;;;;;5041199;28;20064;-83
2023/09/09 04:37:30;;;;;;;36.53;32.58;;;;;;;;;;5038520;28;20300;-83
2023/09/09 04:39:56;;;;;;;35.47;31.98;;;;;;;;;;5041967;28;20049;-83
2023/09/09 04:42:22;;;;;;;34.80;30.98;;;;;;;;;;5039881;28;20049;-83
2023/09/09 04:44:48;;;;;;;34.20;30.90;;;;;;;;;;5028494;28;20767;-83
2023/09/09 04:47:14;;;;;;;33.08;29.98;;;;;;;;;;5038200;28;20053;-83
2023/09/09 04:49:40;;;;;;;30.88;27.88;;;;;;;;;;5039002;28;20896;-84
2023/09/09 04:52:06;;;;;;;29.60;26.70;;;;;;;;;;5038237;28;20044;-83
2023/09/09 04:54:32;;;;;;;29.05;26.05;;;;;;;;;;5034752;28;20045;-84
2023/09/09 04:57:02;;;;;;;32.05;28.95;;;;;;;;;;5017242;28;20053;-84
2023/09/09 04:59:28;;;;;;;34.60;31.27;;;;;;;;;;5028104;28;20046;-84
2023/09/09 05:01:54;;;;;;;35.30;31.60;;;;;;;;;;5026509;28;20045;-83
2023/09/09 05:04:20;;;;;;;36.58;32.63;;;;;;;;;;5036382;28;20049;-83
2023/09/09 05:06:47;;;;;;;36.40;32.28;;;;;;;;;;5037587;28;20049;-84
2023/09/09 05:09:13;;;;;;;36.75;32.95;;;;;;;;;;5039099;28;20041;-83
2023/09/09 05:11:39;;;;;;;34.35;30.92;;;;;;;;;;5021633;28;20042;-83
2023/09/09 05:14:05;;;;;;;36.25;32.15;;;;;;;;;;5039164;28;20049;-84
2023/09/09 05:16:31;;;;;;;40.67;36.35;;;;;;;;;;5037147;28;20060;-84
2023/09/09 05:18:58;;;;;;;39.38;35.50;;;;;;;;;;5038374;28;20084;-84
2023/09/09 05:21:26;;;;;;;39.85;36.00;;;;;;;;;;5020895;28;20072;-84
2023/09/09 05:23:52;;;;;;;39.45;35.55;;;;;;;;;;5035540;28;20049;-84
2023/09/09 05:26:20;;;;;;;37.10;33.55;;;;;;;;;;5038495;28;20064;-84
2023/09/09 05:28:49;;;;;;;37.22;33.60;;;;;;;;;;5037805;28;20041;-84
2023/09/09 05:31:16;;;;;;;39.10;35.25;;;;;;;;;;5038348;28;20091;-83
2023/09/09 05:33:42;;;;;;;39.63;35.53;;;;;;;;;;5037092;28;20518;-84
2023/09/09 05:36:09;;;;;;;35.35;31.75;;;;;;;;;;5037899;28;20061;-84
2023/09/09 05:38:35;;;;;;;34.38;31.10;;;;;;;;;;5034435;28;20076;-84
2023/09/09 05:41:02;;;;;;;32.92;29.75;;;;;;;;;;5041573;28;20132;-85
2023/09/09 05:43:28;;;;;;;32.88;29.73;;;;;;;;;;5012223;28;20045;-84
2023/09/09 05:45:56;;;;;;;33.53;30.10;;;;;;;;;;5037555;28;20069;-85
2023/09/09 05:48:22;;;;;;;32.67;29.60;;;;;;;;;;5037957;28;20116;-85
2023/09/09 05:50:49;;;;;;;32.33;29.08;;;;;;;;;;5028367;28;20050;-85
2023/09/09 05:53:15;;;;;;;31.25;27.70;;;;;;;;;;5033724;28;20056;-85
2023/09/09 05:55:43;;;;;;;30.67;27.65;;;;;;;;;;5033199;28;20042;-85
2023/09/09 05:58:09;;;;;;;29.52;26.52;;;;;;;;;;5017961;28;20053;-85
2023/09/09 06:00:35;;;;;;;30.67;27.38;;;;;;;;;;5028240;28;20033;-85
2023/09/09 06:03:02;;;;;;;30.30;27.33;;;;;;;;;;5028637;28;20060;-85
2023/09/09 06:05:28;;;;;;;30.77;27.58;;;;;;;;;;5037804;28;20096;-85
2023/09/09 06:07:54;;;;;;;32.20;29.13;;;;;;;;;;5038015;28;20049;-85
2023/09/09 06:10:20;;;;;;;32.92;29.70;;;;;;;;;;5038394;28;20129;-85
2023/09/09 06:12:46;;;;;;;32.42;29.27;;;;;;;;;;5038690;28;20049;-85
2023/09/09 06:15:12;;;;;;;31.73;28.67;;;;;;;;;;5037447;28;20041;-85
2023/09/09 06:17:39;;;;;;;31.48;28.48;;;;;;;;;;5036087;28;20071;-85
2023/09/09 06:20:06;;;;;;;32.22;29.10;;;;;;;;;;5020450;28;20110;-85
2023/09/09 06:22:34;;;;;;;33.88;30.48;;;;;;;;;;5038288;28;20048;-85
2023/09/09 06:25:00;;;;;;;32.30;29.20;;;;;;;;;;5038906;28;20053;-84
2023/09/09 06:27:26;;;;;;;32.80;29.60;;;;;;;;;;5020778;28;20068;-84
2023/09/09 06:29:52;;;;;;;31.88;28.98;;;;;;;;;;5038219;28;20476;-84
2023/09/09 06:32:18;;;;;;;33.25;30.05;;;;;;;;;;5002406;28;20115;-84
2023/09/09 06:34:44;;;;;;;31.08;28.23;;;;;;;;;;5037668;28;20042;-84
2023/09/09 06:37:10;;;;;;;29.20;26.55;;;;;;;;;;5036174;28;20045;-84
2023/09/09 06:39:36;;;;;;;33.47;30.23;;;;;;;;;;5031470;28;20041;-84
2023/09/09 06:42:03;;;;;;;30.73;27.75;;;;;;;;;;5052907;28;20084;-85
2023/09/09 06:44:29;;;;;;;31.33;28.42;;;;;;;;;;5018449;28;20046;-84
2023/09/09 06:46:55;;;;;;;30.90;28.00;;;;;;;;;;5018327;28;20046;-84
2023/09/09 06:49:21;;;;;;;31.65;28.65;;;;;;;;;;5037994;28;20128;-84
2023/09/09 06:51:47;;;;;;;32.17;29.27;;;;;;;;;;5036507;28;20095;-85
2023/09/09 06:54:13;;;;;;;31.55;28.55;;;;;;;;;;5037859;28;20200;-85
2023/09/09 06:56:40;;;;;;;30.38;27.50;;;;;;;;;;5033852;28;20488;-84
2023/09/09 06:59:07;;;;;;;29.92;27.15;;;;;;;;;;5038475;28;20404;-84
2023/09/09 07:01:33;;;;;;;29.23;26.42;;;;;;;;;;5020889;28;20049;-85
2023/09/09 07:04:00;;;;;;;30.10;27.50;;;;;;;;;;5039227;28;20045;-84
2023/09/09 07:06:26;;;;;;;30.58;27.52;;;;;;;;;;5038131;28;20068;-84
2023/09/09 07:08:53;;;;;;;28.77;25.98;;;;;;;;;;5038146;28;20128;-84
2023/09/09 07:11:19;;;;;;;30.05;27.35;;;;;;;;;;5020977;28;20046;-85
2023/09/09 07:13:45;;;;;;;27.40;24.67;;;;;;;;;;5037423;28;20433;-84
2023/09/09 07:16:11;;;;;;;26.83;24.42;;;;;;;;;;5034726;28;20053;-84
2023/09/09 07:18:40;;;;;;;27.67;25.17;;;;;;;;;;5035413;28;20056;-84
2023/09/09 07:21:09;;;;;;;27.30;24.85;;;;;;;;;;5035395;28;20101;-85
2023/09/09 07:23:35;;;;;;;28.20;25.42;;;;;;;;;;5035853;28;20096;-84
2023/09/09 07:26:01;;;;;;;27.27;24.80;;;;;;;;;;5038122;28;20041;-85
2023/09/09 07:28:28;;;;;;;27.02;24.50;;;;;;;;;;5036304;28;20511;-84
2023/09/09 07:30:54;;;;;;;27.17;24.63;;;;;;;;;;5037957;28;20076;-84
2023/09/09 07:33:20;;;;;;;26.27;23.92;;;;;;;;;;5038175;28;20372;-84
2023/09/09 07:35:47;;;;;;;28.70;25.83;;;;;;;;;;5036922;28;20053;-84
2023/09/09 07:38:13;;;;;;;26.45;23.85;;;;;;;;;;5032273;28;20050;-85
2023/09/09 07:40:39;;;;;;;27.33;24.70;;;;;;;;;;5035508;28;20054;-85
2023/09/09 07:43:05;;;;;;;27.02;24.27;;;;;;;;;;5017609;28;20119;-85
2023/09/09 07:45:32;;;;;;;26.88;24.27;;;;;;;;;;5002736;28;20061;-84
2023/09/09 07:47:58;;;;;;;26.90;24.55;;;;;;;;;;5033762;28;20043;-84
2023/09/09 07:50:25;;;;;;;25.83;23.33;;;;;;;;;;5037505;28;20049;-84
2023/09/09 07:52:51;;;;;;;25.77;23.42;;;;;;;;;;5015579;28;20133;-85
2023/09/09 07:55:17;;;;;;;26.17;23.80;;;;;;;;;;5002184;28;20042;-85
2023/09/09 07:57:43;;;;;;;25.25;22.80;;;;;;;;;;5038551;28;20049;-84
2023/09/09 08:00:10;;;;;;;26.55;24.02;;;;;;;;;;5016299;28;20042;-85
2023/09/09 08:02:36;;;;;;;26.58;24.17;;;;;;;;;;5024000;28;20558;-84
2023/09/09 08:05:03;;;;;;;26.35;23.80;;;;;;;;;;5021006;28;20042;-84
2023/09/09 08:07:29;;;;;;;24.75;22.45;;;;;;;;;;5031926;28;20041;-84
2023/09/09 08:09:55;;;;;;;25.45;22.80;;;;;;;;;;5040055;28;20071;-84
2023/09/09 08:12:21;;;;;;;26.70;24.05;;;;;;;;;;5040645;28;20045;-84
2023/09/09 08:14:47;;;;;;;28.00;24.17;;;;;;;;;;5038780;28;20116;-84
2023/09/09 08:17:14;;;;;;;26.65;24.05;;;;;;;;;;5038316;28;20061;-82
2023/09/09 08:19:40;;;;;;;26.45;23.85;;;;;;;;;;5022703;28;20135;-84
2023/09/09 08:22:06;;;;;;;25.10;22.40;;;;;;;;;;5039223;28;20045;-85
2023/09/09 08:24:33;;;;;;;26.98;24.33;;;;;;;;;;5037296;28;20046;-84
2023/09/09 08:27:01;;;;;;;27.60;24.98;;;;;;;;;;5030279;28;20140;-84
2023/09/09 08:29:27;;;;;;;28.35;25.55;;;;;;;;;;5040584;28;20073;-85
2023/09/09 08:31:54;;;;;;;28.98;26.23;;;;;;;;;;5023462;28;20128;-85
2023/09/09 08:34:20;;;;;;;32.47;25.25;;;;;;;;;;5032868;28;20048;-84
2023/09/09 08:36:46;;;;;;;29.70;26.58;;;;;;;;;;5023005;28;20100;-84
2023/09/09 08:39:12;;;;;;;28.15;25.30;;;;;;;;;;5006820;28;20045;-84
2023/09/09 08:42:02;;;;;;;28.23;25.42;;;;;;;;;;5040929;28;20049;-84
2023/09/09 08:44:49;;;;;;;27.65;24.83;;;;;;;;;;5008957;28;20101;-83
2023/09/09 08:47:18;;;;;;;25.58;23.00;;;;;;;;;;5032228;28;20054;-83
2023/09/09 08:49:46;;;;;;;27.55;24.17;;;;;;;;;;5041558;28;20046;-83
2023/09/09 08:52:19;;;;;;;26.33;23.13;;;;;;;;;;5041554;28;20038;-83
2023/09/09 08:54:46;;;;;;;29.67;26.88;;;;;;;;;;5021591;28;20547;-84
2023/09/09 08:57:12;;;;;;;27.05;24.45;;;;;;;;;;5039520;28;20059;-83
2023/09/09 08:59:39;;;;;;;28.75;25.85;;;;;;;;;;5031347;28;20531;-83
2023/09/09 09:02:05;;;;;;;28.00;24.02;;;;;;;;;;5038588;28;20060;-83
2023/09/09 09:04:33;;;;;;;26.15;23.55;;;;;;;;;;5047615;28;20049;-84
2023/09/09 09:07:00;;;;;;;23.38;21.02;;;;;;;;;;5052623;28;20052;-82
2023/09/09 09:09:26;;;;;;;24.17;21.75;;;;;;;;;;5054407;28;20099;-82
2023/09/09 09:11:52;;;;;;;25.13;22.42;;;;;;;;;;5036783;28;20045;-82
2023/09/09 09:14:18;;;;;;;23.85;21.30;;;;;;;;;;5053774;28;20069;-82
2023/09/09 09:16:45;;;;;;;24.45;21.95;;;;;;;;;;5053547;28;20057;-83
2023/09/09 09:19:17;;;;;;;25.58;22.80;;;;;;;;;;5047554;28;20084;-83
2023/09/09 09:21:43;;;;;;;26.80;23.23;;;;;;;;;;5045119;28;20044;-83
2023/09/09 09:24:09;;;;;;;24.02;21.52;;;;;;;;;;5029360;28;20072;-83
2023/09/09 09:26:36;;;;;;;24.88;21.55;;;;;;;;;;5047273;28;20110;-82
2023/09/09 09:29:05;;;;;;;24.15;21.55;;;;;;;;;;5029124;28;20092;-82
2023/09/09 09:31:31;;;;;;;22.75;20.45;;;;;;;;;;5046069;28;20064;-82
2023/09/09 09:33:59;;;;;;;21.10;17.70;;;;;;;;;;5031222;28;20046;-82
2023/09/09 09:36:25;;;;;;;21.60;18.70;;;;;;;;;;5043806;28;20042;-81
2023/09/09 09:38:52;;;;;;;25.98;20.98;;;;;;;;;;5044589;28;20069;-82
2023/09/09 09:41:19;;;;;;;23.45;20.00;;;;;;;;;;5029158;28;20073;-81
2023/09/09 09:43:45;;;;;;;16.55;14.82;;;;;;;;;;5040862;28;20034;-81
2023/09/09 09:46:21;;;;;;;17.23;15.40;;;;;;;;;;5033879;28;20073;-81
2023/09/09 09:48:48;;;;;;;18.52;16.52;;;;;;;;;;5022413;28;20140;-81
2023/09/09 09:51:14;;;;;;;14.98;13.55;;;;;;;;;;5033549;28;20057;-82
2023/09/09 09:53:49;;;;;;;19.13;14.40;;;;;;;;;;5030336;28;20049;-81
2023/09/09 09:56:16;;;;;;;15.90;13.30;;;;;;;;;;5043505;28;20055;-83
2023/09/09 09:58:44;;;;;;;18.88;12.60;;;;;;;;;;5047141;28;20052;-81
2023/09/09 10:01:10;;;;;;;13.52;12.00;;;;;;;;;;5032539;28;20056;-81
2023/09/09 10:03:58;;;;;;;12.52;11.23;;;;;;;;;;5040335;28;20124;-82
2023/09/09 10:06:27;;;;;;;14.35;11.15;;;;;;;;;;5046366;28;20144;-82
2023/09/09 10:08:57;;;;;;;15.13;11.43;;;;;;;;;;5041235;28;20080;-81
2023/09/09 10:11:25;;;;;;;12.82;11.00;;;;;;;;;;5025691;28;20060;-81
2023/09/09 10:14:05;;;;;;;17.77;12.48;;;;;;;;;;5042979;28;20079;-81
2023/09/09 10:16:32;;;;;;;14.75;12.63;;;;;;;;;;5041403;28;20057;-80
2023/09/09 10:18:58;;;;;;;15.80;11.90;;;;;;;;;;5040801;28;20042;-81
2023/09/09 10:21:26;;;;;;;14.13;10.55;;;;;;;;;;5041598;28;20045;-80
2023/09/09 10:23:54;;;;;;;15.35;9.75;;;;;;;;;;5041517;28;21506;-80
2023/09/09 10:26:22;;;;;;;14.00;9.70;;;;;;;;;;5024193;28;20404;-80
2023/09/09 10:28:49;;;;;;;13.07;9.68;;;;;;;;;;5041300;28;20056;-80
2023/09/09 10:31:15;;;;;;;13.18;9.40;;;;;;;;;;5039888;28;20037;-81
2023/09/09 10:33:42;;;;;;;9.63;8.50;;;;;;;;;;5040279;28;20491;-80
2023/09/09 10:36:09;;;;;;;13.60;8.68;;;;;;;;;;5039917;28;20041;-80
2023/09/09 10:38:35;;;;;;;12.90;8.60;;;;;;;;;;5040942;28;20045;-80
2023/09/09 10:41:03;;;;;;;12.98;9.20;;;;;;;;;;5041255;28;20440;-80
2023/09/09 10:43:30;;;;;;;12.80;8.88;;;;;;;;;;5023705;28;20045;-81
2023/09/09 10:45:56;;;;;;;10.80;8.90;;;;;;;;;;5039469;28;20041;-82
2023/09/09 10:48:23;;;;;;;11.57;9.48;;;;;;;;;;5020454;28;20411;-82
2023/09/09 10:50:53;;;;;;;12.25;8.73;;;;;;;;;;5034162;28;20037;-83
2023/09/09 10:53:23;;;;;;;12.52;7.55;;;;;;;;;;5039335;28;20054;-83
2023/09/09 10:55:51;;;;;;;12.45;7.68;;;;;;;;;;5039222;28;20080;-83
2023/09/09 10:58:19;;;;;;;14.00;8.00;;;;;;;;;;5022597;28;20045;-82
2023/09/09 11:00:46;;;;;;;15.30;7.47;;;;;;;;;;5037943;28;20116;-82
2023/09/09 11:03:23;;;;;;;11.73;7.65;;;;;;;;;;5038296;28;20049;-83
2023/09/09 11:05:59;;;;;;;15.32;7.85;;;;;;;;;;5036650;28;20107;-82
2023/09/09 11:08:33;;;;;;;12.30;9.25;;;;;;;;;;5021574;28;20045;-81
2023/09/09 11:11:08;;;;;;;14.07;8.73;;;;;;;;;;5053873;28;20049;-82
2023/09/09 11:13:51;;;;;;;15.48;10.35;;;;;;;;;;5057309;28;20124;-82
2023/09/09 11:16:26;;;;;;;12.15;9.73;;;;;;;;;;5058717;28;20053;-82
2023/09/09 11:18:52;;;;;;;17.65;10.35;;;;;;;;;;5057356;28;20045;-82
2023/09/09 11:21:22;;;;;;;11.82;8.27;;;;;;;;;;5037910;28;20046;-82
2023/09/09 11:23:48;;;;;;;12.85;9.00;;;;;;;;;;5036794;28;20104;-82
2023/09/09 11:26:15;;;;;;;12.90;10.60;;;;;;;;;;5039032;28;20077;-81
2023/09/09 11:28:42;;;;;;;15.85;10.38;;;;;;;;;;5037550;28;20052;-83
2023/09/09 11:31:12;;;;;;;16.88;10.60;;;;;;;;;;5010798;28;20373;-82
2023/09/09 11:33:41;;;;;;;12.30;8.30;;;;;;;;;;5032945;28;20131;-83
2023/09/09 11:36:07;;;;;;;14.18;8.73;;;;;;;;;;5042092;28;20038;-82
2023/09/09 11:38:34;;;;;;;11.93;8.38;;;;;;;;;;5040399;28;20172;-83
2023/09/09 11:41:00;;;;;;;16.90;8.60;;;;;;;;;;5039833;28;20052;-83
2023/09/09 11:43:26;;;;;;;14.85;8.35;;;;;;;;;;5041247;28;20086;-82
2023/09/09 11:45:53;;;;;;;10.52;7.63;;;;;;;;;;5040622;28;20084;-82
2023/09/09 11:48:19;;;;;;;13.38;8.27;;;;;;;;;;5043189;28;20081;-82
2023/09/09 11:50:46;;;;;;;14.85;8.50;;;;;;;;;;5042869;28;20037;-82
2023/09/09 11:53:12;;;;;;;19.85;9.57;;;;;;;;;;5023027;28;20053;-82
2023/09/09 11:55:39;;;;;;;15.95;9.05;;;;;;;;;;5042531;28;20042;-82
2023/09/09 11:58:05;;;;;;;13.55;8.85;;;;;;;;;;5031483;28;20386;-81
2023/09/09 12:00:32;;;;;;;15.40;9.05;;;;;;;;;;5018816;28;20046;-82
2023/09/09 12:02:58;;;;;;;15.48;8.43;;;;;;;;;;5044843;28;20049;-81
2023/09/09 12:05:29;;;;;;;14.68;8.60;;;;;;;;;;5061699;28;20083;-84
2023/09/09 12:07:56;;;;;;;16.15;8.60;;;;;;;;;;5029636;28;20050;-83
2023/09/09 12:10:22;;;;;;;17.52;10.13;;;;;;;;;;5039907;28;20053;-83
2023/09/09 12:12:48;;;;;;;15.55;8.18;;;;;;;;;;5022457;28;20045;-83
2023/09/09 12:15:15;;;;;;;14.07;8.60;;;;;;;;;;5040124;28;20101;-83
2023/09/09 12:17:41;;;;;;;20.52;9.10;;;;;;;;;;5041826;28;20042;-83
2023/09/09 12:20:08;;;;;;;14.43;8.73;;;;;;;;;;5042696;28;20049;-83
2023/09/09 12:22:35;;;;;;;16.40;9.18;;;;;;;;;;5041274;28;20120;-83
2023/09/09 12:25:02;;;;;;;14.68;8.32;;;;;;;;;;5042008;28;20104;-83
2023/09/09 12:27:44;;;;;;;15.10;8.75;;;;;;;;;;5041466;28;20077;-82
2023/09/09 12:30:29;;;;;;;16.90;8.38;;;;;;;;;;5043538;28;20137;-83
2023/09/09 12:32:55;;;;;;;14.57;8.75;;;;;;;;;;5035156;28;20045;-83
2023/09/09 12:35:21;;;;;;;14.20;8.57;;;;;;;;;;5041954;28;20103;-82
2023/09/09 12:37:47;;;;;;;15.50;9.40;;;;;;;;;;5042773;28;20056;-82
2023/09/09 12:40:13;;;;;;;13.75;8.48;;;;;;;;;;5025431;28;20052;-82
2023/09/09 12:42:39;;;;;;;17.92;8.65;;;;;;;;;;5043421;28;20164;-81
2023/09/09 12:45:10;;;;;;;13.73;8.68;;;;;;;;;;5023600;28;20482;-82
2023/09/09 12:47:36;;;;;;;15.32;10.10;;;;;;;;;;5023635;28;20053;-82
2023/09/09 12:50:03;;;;;;;16.40;10.57;;;;;;;;;;5040613;28;20453;-81
2023/09/09 12:52:32;;;;;;;16.05;9.25;;;;;;;;;;5041406;28;20125;-81
2023/09/09 12:54:58;;;;;;;20.75;10.02;;;;;;;;;;5042410;28;20496;-82
2023/09/09 12:57:24;;;;;;;15.65;8.90;;;;;;;;;;5041728;28;20053;-83
2023/09/09 12:59:51;;;;;;;13.75;8.45;;;;;;;;;;5040247;28;20113;-82
2023/09/09 13:02:17;;;;;;;12.32;9.23;;;;;;;;;;5041299;28;20057;-81
2023/09/09 13:04:43;;;;;;;16.15;9.30;;;;;;;;;;5043316;28;20042;-81
2023/09/09 13:07:09;;;;;;;14.30;10.00;;;;;;;;;;5041766;28;20056;-82
2023/09/09 13:09:35;;;;;;;17.02;10.75;;;;;;;;;;5040465;28;20064;-82
2023/09/09 13:12:01;;;;;;;17.85;10.32;;;;;;;;;;5038950;28;20053;-82
2023/09/09 13:14:27;;;;;;;14.85;10.52;;;;;;;;;;5041065;28;20438;-83
2023/09/09 13:16:54;;;;;;;15.43;10.27;;;;;;;;;;5024664;28;20061;-82
2023/09/09 13:19:21;;;;;;;14.95;9.25;;;;;;;;;;5019663;28;20140;-81
2023/09/09 13:21:48;;;;;;;18.23;9.63;;;;;;;;;;5035453;28;20089;-82
2023/09/09 13:24:14;;;;;;;16.17;8.88;;;;;;;;;;5037370;28;20132;-81
2023/09/09 13:26:40;;;;;;;16.75;9.75;;;;;;;;;;5035423;28;20037;-81
2023/09/09 13:29:06;;;;;;;13.95;8.93;;;;;;;;;;5035856;28;20044;-81
2023/09/09 13:31:32;;;;;;;16.30;8.93;;;;;;;;;;5029762;28;20048;-82
2023/09/09 13:33:58;;;;;;;15.57;9.35;;;;;;;;;;5029751;28;20045;-83
2023/09/09 13:36:25;;;;;;;15.55;9.30;;;;;;;;;;5032932;28;20080;-83
2023/09/09 13:38:51;;;;;;;15.20;9.82;;;;;;;;;;5032772;28;20454;-81
2023/09/09 13:41:17;;;;;;;15.70;9.00;;;;;;;;;;5032661;28;20097;-82
2023/09/09 13:43:43;;;;;;;19.02;9.75;;;;;;;;;;5015094;28;20042;-82
2023/09/09 13:46:10;;;;;;;14.68;9.38;;;;;;;;;;5031509;28;20080;-82
2023/09/09 13:48:36;;;;;;;13.90;9.73;;;;;;;;;;5035781;28;20052;-82
2023/09/09 13:51:02;;;;;;;14.55;9.85;;;;;;;;;;5031871;28;20048;-82
2023/09/09 13:53:28;;;;;;;17.30;10.10;;;;;;;;;;5037705;28;20140;-82
2023/09/09 13:55:56;;;;;;;14.65;10.70;;;;;;;;;;5041358;28;20428;-83
2023/09/09 13:58:22;;;;;;;13.73;9.75;;;;;;;;;;5029856;28;20052;-83
2023/09/09 14:00:50;;;;;;;17.02;11.27;;;;;;;;;;5031255;28;20048;-82
2023/09/09 14:03:17;;;;;;;15.02;11.15;;;;;;;;;;5030613;28;20041;-82
2023/09/09 14:05:43;;;;;;;12.77;10.35;;;;;;;;;;5027130;28;20038;-82
2023/09/09 14:08:09;;;;;;;14.25;10.38;;;;;;;;;;5033365;28;20041;-82
2023/09/09 14:10:35;;;;;;;14.00;10.50;;;;;;;;;;5031389;28;20038;-82
2023/09/09 14:13:01;;;;;;;13.07;10.85;;;;;;;;;;5037894;28;20777;-83
2023/09/09 14:15:27;;;;;;;16.05;9.88;;;;;;;;;;5033398;28;20054;-83
2023/09/09 14:17:53;;;;;;;14.32;10.73;;;;;;;;;;5038392;28;20049;-82